Surface/Precipitation History
02/08/2018 18:35  to  2/9/2018 18:35
Change End Date:
Date/Time
(MDT)
Sf
Temp Chem Water Layer Surface Precipitation
Sfc Pvt Sub Frz Factor Pct Dpth DpthThk IcePct Cond Salin FI Type Intens Accum Rate
02/09/2018 18:26 Ice Warning 23.2F - 30F 32F 5 0% - - 99% 0 mhos 102 - None None - -
02/09/2018 18:25 Ice Warning 23.0F - 30F 32F 5 0% - - 99% 0 mhos 105 - None None - -
02/09/2018 18:16 Ice Warning 22.8F - 30F 32F 10 0% - - 99% 0 mhos 104 - None None - -
02/09/2018 18:10 Ice Warning 23.2F - 30F 32F 10 0% - - 99% 0 mhos 102 - None None - -
02/09/2018 18:06 Ice Warning 23.7F - 30F 32F 10 0% - - 99% 0 mhos 98 - None None - -
02/09/2018 17:56 Ice Warning 24.4F - 30F 32F 10 0% - - 99% 0 mhos 92 - None None - -
02/09/2018 17:55 Ice Warning 24.6F - 30F 32F 10 0% - - 99% 0 mhos 90 - None None - -
02/09/2018 17:46 Ice Warning 25.7F - 30F 32F 10 0% - - 99% 0 mhos 84 - None None - -
02/09/2018 17:40 Ice Warning 26.4F - 30F 32F 10 0% - - 99% 0 mhos 77 - None None - -
02/09/2018 17:36 Ice Warning 27.0F - 30F 32F 20 0% - - 99% 0 mhos 72 - None None - -
02/09/2018 17:26 Ice Warning 27.9F - 30F 32F 30 0% - - 99% 0 mhos 68 - None None - -
02/09/2018 17:25 Ice Warning 27.9F - 30F 32F 30 0% - - 99% 0 mhos 68 - None None - -
02/09/2018 17:16 Error 28.8F - 30F - - - - - - 0 mhos 62 - None None - -
02/09/2018 17:10 Ice Warning 29.1F - 30F 32F 30 0% - - 99% 0 mhos 59 - None None - -
02/09/2018 17:06 Ice Warning 30.2F - 30F 32F 25 0% - - 99% 0 mhos 55 - None None - -
Date/Time
(MDT)
Sf
Temp Chem Water Layer Surface Precipitation
Sfc Pvt Sub Frz Factor Pct Dpth DpthThk IcePct Cond Salin FI Type Intens Accum Rate
02/09/2018 16:56 Ice Warning 30.4F - 30F 32F 5 0% - - 98% 0 mhos 56 - None None - -
02/09/2018 16:55 Ice Warning 30.6F - 30F 32F 5 0% - - 98% 0 mhos 55 - None None - -
02/09/2018 16:46 Ice Warning 30.4F - 30F 32F 5 0% - - 98% 0 mhos 56 - None None - -
02/09/2018 16:40 Ice Warning 31.3F - 30F 32F 10 0% - - 97% 0 mhos 52 - None None - -
02/09/2018 16:36 Ice Warning 31.8F - 30F 32F 10 0% - - 89% 0 mhos 49 - None None - -
02/09/2018 16:25 Wet 33.6F - 30F 32F 5 0% 0.00 in - 0% 0 mhos 48 - None None - -
02/09/2018 16:25 Wet 33.6F - 30F 32F 5 0% 0.00 in - 0% 0 mhos 48 - None None - -
02/09/2018 16:15 Wet 33.8F - 30F 32F 10 0% 0.00 in - 0% 0 mhos 47 - None None - -
02/09/2018 16:10 Wet 34.5F - 30F 32F 10 0% 0.00 in - 0% 1 mhos 69 - None None - -
02/09/2018 16:05 Wet 35.6F - 30F 32F 5 0% 0.70 in - 0% 0 mhos 42 - None None - -
02/09/2018 15:55 Wet 35.6F - 30F 32F 15 0% 0.00 in - 0% 0 mhos 46 - None None - -
02/09/2018 15:55 Wet 35.6F - 30F 32F 15 0% 0.00 in - 0% 0 mhos 46 - None None - -
02/09/2018 15:45 Wet 36.7F - 30F 32F 20 0% 0.00 in - 0% 0 mhos 45 - None None - -
02/09/2018 15:40 Wet 37.8F - 30F 32F 30 0% 0.00 in - 0% 0 mhos 44 - None None - -
02/09/2018 15:35 Error 37.8F - 30F - - - - - - 0 mhos 44 - None None - -
Date/Time
(MDT)
Sf
Temp Chem Water Layer Surface Precipitation
Sfc Pvt Sub Frz Factor Pct Dpth DpthThk IcePct Cond Salin FI Type Intens Accum Rate
02/09/2018 15:25 Wet 38.1F - 30F 32F 15 0% 0.00 in - 0% 0 mhos 44 - None None - -
02/09/2018 15:25 Wet 38.1F - 30F 32F 15 0% 0.00 in - 0% 0 mhos 44 - None None - -
02/09/2018 15:15 Wet 37.9F - 30F 32F 15 0% 0.00 in - 0% 0 mhos 44 - None None - -
02/09/2018 15:10 Wet 38.3F - 30F 32F 15 0% 0.00 in - 0% 0 mhos 44 - None None - -
02/09/2018 15:05 Wet 38.3F - 30F 32F 15 0% 0.00 in - 0% 1 mhos 56 - None None - -
02/09/2018 14:55 Wet 38.5F - 30F 32F 20 0% 0.00 in - 0% 1 mhos 70 - None None - -
02/09/2018 14:55 Wet 38.5F - 30F 32F 20 0% 0.00 in - 0% 1 mhos 70 - None None - -
02/09/2018 14:45 Wet 38.5F - 30F 32F 25 1% 0.00 in - 0% 3 mhos 323 - None None - -
02/09/2018 14:40 Wet 39.4F - 30F 32F 25 1% 3.50 in - 0% 4 mhos 387 - None None - -
02/09/2018 14:35 Wet 38.3F - 30F 31F 20 3% 0.20 in - 0% 9 mhos 866 - None None - -
02/09/2018 14:25 Error 38.7F - 30F - - - - - - 20 mhos 1947 - None None - -
02/09/2018 14:25 Error 38.7F - 30F - - - - - - 20 mhos 1947 - None None - -
02/09/2018 14:15 Error 39.0F - 30F - - - - - - 39 mhos 4064 - None None - -
02/09/2018 14:10 Wet 37.9F - 30F 26F 5 16% 0.00 in - 0% 44 mhos 4872 - None None - -
02/09/2018 14:05 Wet 37.2F - 30F 25F 5 19% 0.00 in - 0% 49 mhos 5634 - None None - -
Date/Time
(MDT)
Sf
Temp Chem Water Layer Surface Precipitation
Sfc Pvt Sub Frz Factor Pct Dpth DpthThk IcePct Cond Salin FI Type Intens Accum Rate
02/09/2018 13:55 Wet 37.0F - 30F 24F 5 20% 0.70 in - 0% 52 mhos 6120 - None None - -
02/09/2018 13:55 Wet 37.0F - 30F 24F 5 20% 0.70 in - 0% 52 mhos 6120 - None None - -
02/09/2018 13:45 Wet 38.1F - 30F 21F 10 26% 0.00 in - 0% 63 mhos 7804 - None None - -
02/09/2018 13:40 Wet 37.8F - 30F 18F 35 31% 0.00 in - 0% 70 mhos 9383 - None None - -
02/09/2018 13:34 Wet 37.0F - 30F 3F 80 50% 0.00 in - 0% 100 mhos 15000 - Yes - - -
02/09/2018 13:25 Wet 41.0F - 30F 32F 25 2% 0.40 in - 0% 6 mhos 530 - None None - -
02/09/2018 13:24 Wet 41.0F - 30F 32F 25 2% 0.40 in - 0% 6 mhos 530 - None None - -
02/09/2018 13:14 Wet 41.2F - 30F 32F 35 0% 0.00 in - 0% 1 mhos 68 - None None - -
02/09/2018 13:10 Wet 40.6F - 30F 32F 20 1% 0.00 in - 0% 3 mhos 295 - None None - -
02/09/2018 13:04 Wet 41.0F - 30F 32F 35 1% 0.00 in - 0% 4 mhos 361 - None None - -
02/09/2018 12:55 Wet 42.3F - 30F 29F 35 10% 0.10 in - 0% 30 mhos 2883 - None None - -
02/09/2018 12:54 Wet 42.3F - 30F 29F 35 10% 0.10 in - 0% 30 mhos 2883 - None None - -
02/09/2018 12:44 Wet 44.2F - 30F 3F 15 50% 0.00 in - 0% 96 mhos 15000 - None None - -
02/09/2018 12:40 Wet 43.5F - 30F 3F 5 50% 0.70 in - 0% 136 mhos 15000 - None None - -
02/09/2018 12:34 Wet 43.3F - 30F 3F 5 50% 0.70 in - 0% 173 mhos 15000 - None None - -
Date/Time
(MDT)
Sf
Temp Chem Water Layer Surface Precipitation
Sfc Pvt Sub Frz Factor Pct Dpth DpthThk IcePct Cond Salin FI Type Intens Accum Rate
02/09/2018 12:25 Wet 39.0F - 30F 3F 95 50% 0.00 in - 0% 227 mhos 15000 - None None - -
02/09/2018 12:24 Wet 39.0F - 30F 3F 95 50% 0.00 in - 0% 227 mhos 15000 - None None - -
02/09/2018 12:14 Wet 39.6F - 30F 3F 95 50% 0.00 in - 0% 293 mhos 15000 - Yes - - -
02/09/2018 12:10 Wet 39.0F - 30F 3F 95 50% 0.00 in - 0% 454 mhos 15000 - None None - -
02/09/2018 12:04 Wet 38.5F - 30F 3F 95 50% 0.00 in - 0% 852 mhos 15000 - None None - -
02/09/2018 11:55 Wet 36.0F - 30F 3F 95 50% 0.00 in - 0% 1196 mhos 15000 - Yes - - -
02/09/2018 11:54 Wet 36.0F - 30F 3F 95 50% 0.00 in - 0% 1196 mhos 15000 - Yes - - -
02/09/2018 11:44 Wet 36.7F - 30F 3F 70 50% 0.00 in - 0% 1500 mhos 15000 - None None - -
02/09/2018 11:40 Wet 37.2F - 30F 3F 55 50% 0.00 in - 0% 1501 mhos 15000 - None None - -
02/09/2018 11:34 Wet 36.5F - 30F 3F 55 50% 0.00 in - 0% 2008 mhos 15000 - None None - -
02/09/2018 11:25 Wet 35.2F - 30F 3F 60 50% 0.00 in - 0% 2008 mhos 15000 - None None - -
02/09/2018 11:24 Wet 35.2F - 30F 3F 70 50% 0.00 in - 0% 1500 mhos 15000 - None None - -
02/09/2018 11:14 Wet 32.7F - 30F 3F 80 50% 0.00 in - 0% 1197 mhos 15000 - None None - -
02/09/2018 11:10 Wet 32.5F - 30F 3F 80 50% 0.00 in - 0% 1197 mhos 15000 - Yes - - -
02/09/2018 11:04 Chemically Wet 32.0F - 30F 3F 70 50% 0.00 in - 0% 1000 mhos 15000 - Yes - - -
Date/Time
(MDT)
Sf
Temp Chem Water Layer Surface Precipitation
Sfc Pvt Sub Frz Factor Pct Dpth DpthThk IcePct Cond Salin FI Type Intens Accum Rate
02/09/2018 10:55 Wet 32.5F - 30F 3F 20 50% 0.00 in - 0% 271 mhos 15000 - Yes - - -
02/09/2018 10:53 Wet 32.5F - 30F 3F 20 50% 0.00 in - 0% 248 mhos 15000 - Yes - - -
02/09/2018 10:43 Chemically Wet 31.5F - 30F 3F 5 50% 0.70 in - 0% 184 mhos 15000 - Yes - - -
02/09/2018 10:40 Chemically Wet 31.5F - 30F 3F 5 50% 0.70 in - 0% 190 mhos 15000 - None None - -
02/09/2018 10:33 Chemically Wet 31.6F - 30F 3F 5 50% 0.80 in - 0% 196 mhos 15000 - None None - -
02/09/2018 10:25 Error 32.0F - 30F - - - - - - 298 mhos 15000 - None None - -
02/09/2018 10:23 Error 32.0F - 30F - - - - - - 285 mhos 15000 - None None - -
02/09/2018 10:13 Error 32.5F - 30F - - - - - - 317 mhos 15000 - None None - -
02/09/2018 10:10 Error 32.4F - 30F - - - - - - 317 mhos 15000 - None None - -
02/09/2018 10:03 Error 30.4F - 30F - - - - - - 317 mhos 15000 - None None - -
02/09/2018 09:55 Error 28.2F - 30F - - - - - - 146 mhos 15000 - None None - -
02/09/2018 09:53 Error 28.0F - 30F - - - - - - 114 mhos 15000 - None None - -
02/09/2018 09:43 Chemically Wet 27.0F - 30F 3F 35 50% 0.00 in - 0% 126 mhos 15000 - None None - -
02/09/2018 09:40 Chemically Wet 26.8F - 30F 3F 25 50% 0.00 in - 0% 156 mhos 15000 - None None - -
02/09/2018 09:33 Error 25.5F - 30F - - - - - - 248 mhos 15000 - None None - -
Date/Time
(MDT)
Sf
Temp Chem Water Layer Surface Precipitation
Sfc Pvt Sub Frz Factor Pct Dpth DpthThk IcePct Cond Salin FI Type Intens Accum Rate
02/09/2018 09:25 Chemically Wet 24.8F - 30F 3F 5 50% 0.70 in - 0% 335 mhos 15000 - None None - -
02/09/2018 09:23 Chemically Wet 24.8F - 30F 3F 5 50% 0.70 in - 0% 356 mhos 15000 - None None - -
02/09/2018 09:13 Chemically Wet 23.9F - 30F 3F 50 50% 0.00 in - 0% 459 mhos 15000 - None None - -
02/09/2018 09:10 Chemically Wet 23.5F - 30F 3F 65 50% 0.00 in - 0% 458 mhos 15000 - None None - -
02/09/2018 09:03 Chemically Wet 22.5F - 30F 3F 90 50% 0.00 in - 0% 496 mhos 15000 - None None - -
02/09/2018 08:55 Chemically Wet 21.9F - 30F 3F 95 50% 0.00 in - 0% 457 mhos 15000 - None None - -
02/09/2018 08:53 Chemically Wet 21.9F - 30F 3F 95 50% 0.00 in - 0% 457 mhos 15000 - None None - -
02/09/2018 08:43 Chemically Wet 22.6F - 30F 3F 95 50% 0.00 in - 0% 424 mhos 15000 - None None - -
02/09/2018 08:40 Chemically Wet 21.9F - 30F 3F 90 50% 0.00 in - 0% 396 mhos 15000 - None None - -
02/09/2018 08:33 Chemically Wet 20.7F - 30F 3F 80 50% 0.00 in - 0% 349 mhos 15000 - Yes - - -
02/09/2018 08:25 Chemically Wet 20.8F - 30F 3F 70 50% 0.00 in - 0% 330 mhos 15000 - None None - -
02/09/2018 08:23 Chemically Wet 21.2F - 30F 3F 70 50% 0.00 in - 0% 313 mhos 15000 - Yes - - -
02/09/2018 08:13 Chemically Wet 20.8F - 30F 3F 60 50% 0.00 in - 0% 247 mhos 15000 - None None - -
02/09/2018 08:10 Chemically Wet 20.8F - 30F 3F 55 50% 0.00 in - 0% 220 mhos 15000 - Yes - - -
02/09/2018 08:02 Chemically Wet 20.8F - 30F 3F 45 50% 0.00 in - 0% 180 mhos 15000 - None None - -
Date/Time
(MDT)
Sf
Temp Chem Water Layer Surface Precipitation
Sfc Pvt Sub Frz Factor Pct Dpth DpthThk IcePct Cond Salin FI Type Intens Accum Rate
02/09/2018 07:55 Chemically Wet 20.1F - 30F 3F 45 50% 0.00 in - 0% 148 mhos 15000 - None None - -
02/09/2018 07:52 Chemically Wet 19.9F - 30F 3F 40 50% 0.00 in - 0% 144 mhos 15000 - None None - -
02/09/2018 07:42 Chemically Wet 18.7F - 30F 3F 40 50% 0.00 in - 0% 131 mhos 15000 - None None - -
02/09/2018 07:40 Chemically Wet 18.5F - 30F 3F 35 50% 0.00 in - 0% 129 mhos 15000 - None None - -
02/09/2018 07:32 Chemically Wet 18.7F - 30F 3F 35 50% 0.00 in - 0% 126 mhos 15000 - None None - -
02/09/2018 07:25 Chemically Wet 18.7F - 30F 3F 35 50% 0.00 in - 0% 123 mhos 15000 - None None - -
02/09/2018 07:22 Chemically Wet 18.9F - 30F 3F 35 50% 0.00 in - 0% 126 mhos 15000 - None None - -
02/09/2018 07:12 Chemically Wet 18.9F - 30F 3F 30 50% 0.00 in - 0% 121 mhos 15000 - None None - -
02/09/2018 07:10 Chemically Wet 18.7F - 30F 3F 30 50% 0.00 in - 0% 121 mhos 15000 - None None - -
02/09/2018 07:02 Chemically Wet 18.3F - 30F 3F 30 50% 0.00 in - 0% 121 mhos 15000 - None None - -
02/09/2018 06:55 Chemically Wet 17.6F - 30F 3F 30 50% 0.00 in - 0% 121 mhos 15000 - None None - -
02/09/2018 06:52 Chemically Wet 17.6F - 30F 3F 30 50% 0.00 in - 0% 121 mhos 15000 - None None - -
02/09/2018 06:42 Chemically Wet 17.6F - 30F 3F 30 50% 0.00 in - 0% 123 mhos 15000 - None None - -
02/09/2018 06:40 Chemically Wet 17.6F - 30F 3F 30 50% 0.00 in - 0% 121 mhos 15000 - None None - -
02/09/2018 06:32 Chemically Wet 17.2F - 30F 3F 30 50% 0.00 in - 0% 121 mhos 15000 - None None - -
Date/Time
(MDT)
Sf
Temp Chem Water Layer Surface Precipitation
Sfc Pvt Sub Frz Factor Pct Dpth DpthThk IcePct Cond Salin FI Type Intens Accum Rate
02/09/2018 06:25 Chemically Wet 17.1F - 30F 3F 30 50% 0.00 in - 0% 123 mhos 15000 - None None - -
02/09/2018 06:22 Chemically Wet 16.9F - 30F 3F 30 50% 0.00 in - 0% 126 mhos 15000 - None None - -
02/09/2018 06:12 Chemically Wet 16.0F - 30F 3F 30 50% 0.00 in - 0% 126 mhos 15000 - None None - -
02/09/2018 06:10 Chemically Wet 16.0F - 30F 3F 30 50% 0.00 in - 0% 126 mhos 15000 - None None - -
02/09/2018 06:02 Chemically Wet 16.0F - 30F 3F 30 50% 0.00 in - 0% 126 mhos 15000 - None None - -
02/09/2018 05:55 Chemically Wet 16.2F - 30F 3F 30 50% 0.00 in - 0% 129 mhos 15000 - None None - -
02/09/2018 05:52 Chemically Wet 16.2F - 30F 3F 30 50% 0.00 in - 0% 129 mhos 15000 - None None - -
02/09/2018 05:42 Chemically Wet 16.3F - 30F 3F 35 50% 0.00 in - 0% 132 mhos 15000 - None None - -
02/09/2018 05:40 Chemically Wet 16.3F - 30F 3F 35 50% 0.00 in - 0% 132 mhos 15000 - None None - -
02/09/2018 05:32 Chemically Wet 16.2F - 30F 3F 35 50% 0.00 in - 0% 132 mhos 15000 - None None - -
02/09/2018 05:25 Chemically Wet 16.5F - 30F 3F 35 50% 0.00 in - 0% 132 mhos 15000 - None None - -
02/09/2018 05:21 Chemically Wet 16.7F - 30F 3F 35 50% 0.00 in - 0% 135 mhos 15000 - None None - -
02/09/2018 05:11 Chemically Wet 16.7F - 30F 3F 35 50% 0.00 in - 0% 135 mhos 15000 - None None - -
02/09/2018 05:10 Chemically Wet 16.7F - 30F 3F 35 50% 0.00 in - 0% 135 mhos 15000 - None None - -
02/09/2018 05:01 Chemically Wet 16.9F - 30F 3F 35 50% 0.00 in - 0% 135 mhos 15000 - None None - -
Date/Time
(MDT)
Sf
Temp Chem Water Layer Surface Precipitation
Sfc Pvt Sub Frz Factor Pct Dpth DpthThk IcePct Cond Salin FI Type Intens Accum Rate
02/09/2018 04:55 Chemically Wet 16.9F - 30F 3F 35 50% 0.00 in - 0% 135 mhos 15000 - None None - -
02/09/2018 04:51 Chemically Wet 17.1F - 30F 3F 35 50% 0.00 in - 0% 135 mhos 15000 - None None - -
02/09/2018 04:41 Chemically Wet 17.2F - 30F 3F 35 50% 0.00 in - 0% 138 mhos 15000 - None None - -
02/09/2018 04:40 Chemically Wet 17.2F - 30F 3F 35 50% 0.00 in - 0% 138 mhos 15000 - None None - -
02/09/2018 04:31 Chemically Wet 17.6F - 30F 3F 35 50% 0.00 in - 0% 141 mhos 15000 - None None - -
02/09/2018 04:25 Chemically Wet 17.8F - 30F 3F 35 50% 0.00 in - 0% 141 mhos 15000 - None None - -
02/09/2018 04:21 Chemically Wet 17.8F - 30F 3F 40 50% 0.00 in - 0% 141 mhos 15000 - None None - -
02/09/2018 04:11 Chemically Wet 18.1F - 30F 3F 40 50% 0.00 in - 0% 144 mhos 15000 - None None - -
02/09/2018 04:10 Chemically Wet 18.1F - 30F 3F 40 50% 0.00 in - 0% 144 mhos 15000 - None None - -
02/09/2018 04:01 Chemically Wet 18.1F - 30F 3F 40 50% 0.00 in - 0% 144 mhos 15000 - None None - -
02/09/2018 03:55 Chemically Wet 18.3F - 30F 3F 40 50% 0.00 in - 0% 144 mhos 15000 - None None - -
02/09/2018 03:51 Chemically Wet 18.3F - 30F 3F 40 50% 0.00 in - 0% 144 mhos 15000 - None None - -
02/09/2018 03:41 Chemically Wet 18.7F - 30F 3F 40 50% 0.00 in - 0% 148 mhos 15000 - None None - -
02/09/2018 03:40 Chemically Wet 18.7F - 30F 3F 45 50% 0.00 in - 0% 148 mhos 15000 - None None - -
02/09/2018 03:31 Chemically Wet 18.9F - 30F 3F 45 50% 0.00 in - 0% 152 mhos 15000 - None None - -
Date/Time
(MDT)
Sf
Temp Chem Water Layer Surface Precipitation
Sfc Pvt Sub Frz Factor Pct Dpth DpthThk IcePct Cond Salin FI Type Intens Accum Rate
02/09/2018 03:25 Chemically Wet 19.0F - 30F 3F 45 50% 0.00 in - 0% 148 mhos 15000 - None None - -
02/09/2018 03:21 Chemically Wet 19.2F - 30F 3F 50 50% 0.00 in - 0% 148 mhos 15000 - None None - -
02/09/2018 03:11 Chemically Wet 19.2F - 30F 3F 50 50% 0.00 in - 0% 144 mhos 15000 - None None - -
02/09/2018 03:10 Chemically Wet 19.2F - 30F 3F 50 50% 0.00 in - 0% 144 mhos 15000 - None None - -
02/09/2018 03:01 Chemically Wet 19.2F - 30F 3F 55 50% 0.00 in - 0% 141 mhos 15000 - None None - -
02/09/2018 02:55 Chemically Wet 19.6F - 30F 3F 55 50% 0.00 in - 0% 137 mhos 15000 - None None - -
02/09/2018 02:51 Chemically Wet 19.8F - 30F 3F 55 50% 0.00 in - 0% 134 mhos 15000 - None None - -
02/09/2018 02:40 Chemically Wet 20.3F - 30F 3F 55 50% 0.00 in - 0% 125 mhos 15000 - None None - -
02/09/2018 02:40 Chemically Wet 20.3F - 30F 3F 55 50% 0.00 in - 0% 125 mhos 15000 - None None - -
02/09/2018 02:30 Chemically Wet 20.5F - 30F 3F 55 50% 0.00 in - 0% 118 mhos 15000 - None None - -
02/09/2018 02:25 Chemically Wet 20.8F - 30F 3F 55 50% 0.00 in - 0% 115 mhos 15000 - None None - -
02/09/2018 02:20 Chemically Wet 20.8F - 30F 3F 55 50% 0.00 in - 0% 111 mhos 15000 - None None - -
02/09/2018 02:10 Chemically Wet 20.8F - 30F 3F 50 50% 0.00 in - 0% 98 mhos 15000 - None None - -
02/09/2018 02:10 Chemically Wet 20.8F - 30F 3F 50 50% 0.00 in - 0% 98 mhos 15000 - None None - -
02/09/2018 02:00 Chemically Wet 20.8F - 30F 3F 45 50% 0.00 in - 0% 84 mhos 15000 - None None - -
Date/Time
(MDT)
Sf
Temp Chem Water Layer Surface Precipitation
Sfc Pvt Sub Frz Factor Pct Dpth DpthThk IcePct Cond Salin FI Type Intens Accum Rate
02/09/2018 01:55 Chemically Wet 20.8F - 30F 3F 40 50% 0.00 in - 0% 75 mhos 15000 - None None - -
02/09/2018 01:50 Chemically Wet 20.7F - 30F 3F 40 50% 0.00 in - 0% 68 mhos 15000 - None None - -
02/09/2018 01:40 Chemically Wet 20.7F - 30F 11F 35 40% 0.00 in - 0% 61 mhos 12116 - None None - -
02/09/2018 01:40 Chemically Wet 20.7F - 30F 11F 35 40% 0.00 in - 0% 61 mhos 12116 - None None - -
02/09/2018 01:30 Chemically Wet 20.8F - 30F 17F 30 34% 0.00 in - 0% 57 mhos 10132 - Yes - - -
02/09/2018 01:25 Chemically Wet 21.0F - 30F 17F 30 32% 0.00 in - 0% 56 mhos 9702 - None None - -
02/09/2018 01:20 Chemically Wet 21.2F - 30F 18F 30 31% 0.00 in - 0% 55 mhos 9313 - None None - -
02/09/2018 01:10 Chemically Wet 21.6F - 30F 20F 35 28% 0.00 in - 0% 52 mhos 8472 - None None - -
02/09/2018 01:10 Chemically Wet 21.6F - 30F 20F 35 28% 0.00 in - 0% 52 mhos 8472 - None None - -
02/09/2018 01:00 Chemically Wet 21.9F - 30F 22F 30 25% - - 50% 48 mhos 7507 - None None - -
02/09/2018 00:55 Chemically Wet 21.9F - 30F 22F 30 24% - - 51% 46 mhos 7304 - None None - -
02/09/2018 00:50 Chemically Wet 22.3F - 30F 23F 25 23% - - 52% 45 mhos 7031 - None None - -
02/09/2018 00:40 Chemically Wet 22.1F - 30F 24F 5 21% - - 58% 36 mhos 6204 - None None - -
02/09/2018 00:40 Chemically Wet 22.1F - 30F 24F 5 21% - - 58% 36 mhos 6204 - None None - -
02/09/2018 00:30 Chemically Wet 22.5F - 30F 25F 5 20% - - 59% 36 mhos 5972 - None None - -
Date/Time
(MDT)
Sf
Temp Chem Water Layer Surface Precipitation
Sfc Pvt Sub Frz Factor Pct Dpth DpthThk IcePct Cond Salin FI Type Intens Accum Rate
02/09/2018 00:25 Chemically Wet 22.6F - 30F 25F 5 20% - - 59% 35 mhos 5872 - None None - -
02/09/2018 00:20 Chemically Wet 22.8F - 30F 25F 5 19% - - 60% 34 mhos 5684 - None None - -
02/09/2018 00:10 Chemically Wet 23.0F - 30F 25F 5 19% - - 59% 35 mhos 5732 - None None - -
02/09/2018 00:10 Chemically Wet 23.0F - 30F 25F 5 19% - - 59% 35 mhos 5732 - None None - -
02/09/2018 00:00 Chemically Wet 23.4F - 30F 25F 5 19% - - 57% 37 mhos 5755 - None None - -
02/08/2018 23:55 Chemically Wet 23.7F - 30F 25F 5 19% - - 56% 38 mhos 5783 - None None - -
02/08/2018 23:49 Chemically Wet 23.5F - 30F 25F 5 20% - - 55% 39 mhos 5920 - None None - -
02/08/2018 23:40 Chemically Wet 23.7F - 30F 24F 5 21% - - 51% 43 mhos 6342 - None None - -
02/08/2018 23:39 Chemically Wet 23.7F - 30F 24F 5 21% - - 51% 43 mhos 6342 - None None - -
02/08/2018 23:29 Chemically Wet 24.1F - 30F 24F 5 22% 0.00 in - 0% 46 mhos 6608 - None None - -
02/08/2018 23:25 Chemically Wet 24.4F - 30F 23F 10 23% 0.00 in - 0% 47 mhos 6780 - None None - -
02/08/2018 23:19 Chemically Wet 24.6F - 30F 23F 10 23% 0.00 in - 0% 48 mhos 6989 - None None - -
02/08/2018 23:10 Chemically Wet 25.0F - 30F 22F 20 24% 0.00 in - 0% 50 mhos 7338 - None None - -
02/08/2018 23:09 Chemically Wet 25.0F - 30F 22F 20 24% 0.00 in - 0% 50 mhos 7338 - None None - -
02/08/2018 22:59 Chemically Wet 24.6F - 30F 21F 25 26% 0.00 in - 0% 52 mhos 7774 - None None - -
Date/Time
(MDT)
Sf
Temp Chem Water Layer Surface Precipitation
Sfc Pvt Sub Frz Factor Pct Dpth DpthThk IcePct Cond Salin FI Type Intens Accum Rate
02/08/2018 22:55 Chemically Wet 24.8F - 30F 22F 25 26% 0.00 in - 0% 52 mhos 7743 - None None - -
02/08/2018 22:49 Chemically Wet 25.0F - 30F 21F 25 26% 0.00 in - 0% 53 mhos 7929 - None None - -
02/08/2018 22:40 Chemically Wet 25.3F - 30F 21F 30 26% 0.00 in - 0% 53 mhos 7859 - None None - -
02/08/2018 22:39 Chemically Wet 25.3F - 30F 21F 30 27% 0.00 in - 0% 53 mhos 7970 - None None - -
02/08/2018 22:29 Chemically Wet 25.5F - 30F 22F 25 25% 0.00 in - 0% 51 mhos 7424 - None None - -
02/08/2018 22:25 Chemically Wet 25.5F - 30F 23F 20 24% 0.00 in - 0% 50 mhos 7157 - None None - -
02/08/2018 22:19 Chemically Wet 25.5F - 30F 23F 15 23% 0.00 in - 0% 49 mhos 6916 - None None - -
02/08/2018 22:10 Chemically Wet 25.5F - 30F 23F 20 24% 0.00 in - 0% 50 mhos 7160 - None None - -
02/08/2018 22:09 Chemically Wet 25.7F - 30F 23F 20 24% 0.00 in - 0% 50 mhos 7134 - None None - -
02/08/2018 21:59 Chemically Wet 25.5F - 30F 22F 25 24% 0.00 in - 0% 50 mhos 7327 - None None - -
02/08/2018 21:55 Chemically Wet 25.5F - 30F 22F 25 24% 0.00 in - 0% 50 mhos 7326 - None None - -
02/08/2018 21:49 Chemically Wet 25.7F - 31F 22F 25 24% 0.00 in - 0% 50 mhos 7302 - None None - -
02/08/2018 21:40 Chemically Wet 25.9F - 30F 22F 25 24% 0.00 in - 0% 50 mhos 7248 - None None - -
02/08/2018 21:39 Chemically Wet 25.9F - 30F 22F 25 24% 0.00 in - 0% 50 mhos 7249 - None None - -
02/08/2018 21:29 Chemically Wet 26.1F - 30F 22F 30 25% 0.00 in - 0% 51 mhos 7409 - None None - -
Date/Time
(MDT)
Sf
Temp Chem Water Layer Surface Precipitation
Sfc Pvt Sub Frz Factor Pct Dpth DpthThk IcePct Cond Salin FI Type Intens Accum Rate
02/08/2018 21:25 Chemically Wet 26.1F - 30F 22F 30 25% 0.00 in - 0% 51 mhos 7405 - None None - -
02/08/2018 21:18 Chemically Wet 26.4F - 30F 22F 30 24% 0.00 in - 0% 51 mhos 7347 - None None - -
02/08/2018 21:10 Chemically Wet 26.6F - 30F 22F 30 24% 0.00 in - 0% 51 mhos 7222 - None None - -
02/08/2018 21:08 Chemically Wet 26.6F - 30F 22F 30 24% 0.00 in - 0% 51 mhos 7213 - None None - -
02/08/2018 20:58 Chemically Wet 27.1F - 30F 23F 35 23% 0.00 in - 0% 50 mhos 6939 - None None - -
02/08/2018 20:55 Chemically Wet 27.3F - 30F 23F 35 22% 0.00 in - 0% 49 mhos 6745 - Yes - - -
02/08/2018 20:48 Chemically Wet 27.3F - 30F 24F 35 21% 0.00 in - 0% 47 mhos 6362 - None None - -
02/08/2018 20:40 Chemically Wet 27.5F - 30F 25F 35 20% 0.00 in - 0% 44 mhos 5879 - Yes - - -
02/08/2018 20:38 Chemically Wet 27.7F - 30F 25F 35 19% 0.00 in - 0% 44 mhos 5742 - Yes - - -
02/08/2018 20:28 Chemically Wet 27.9F - 30F 27F 35 16% 0.00 in - 0% 38 mhos 4772 - None None - -
02/08/2018 20:25 Chemically Wet 27.9F - 30F 27F 35 15% 0.00 in - 0% 36 mhos 4536 - None None - -
02/08/2018 20:18 Chemically Wet 28.0F - 30F 28F 35 14% 0.00 in - 0% 33 mhos 4076 - None None - -
02/08/2018 20:10 Chemically Wet 28.0F - 30F 28F 30 12% - - 51% 30 mhos 3641 - Yes - - -
02/08/2018 20:08 Chemically Wet 28.2F - 30F 28F 30 12% - - 51% 30 mhos 3569 - Yes - - -
02/08/2018 19:58 Chemically Wet 28.4F - 30F 29F 30 11% - - 53% 27 mhos 3295 - None None - -
Date/Time
(MDT)
Sf
Temp Chem Water Layer Surface Precipitation
Sfc Pvt Sub Frz Factor Pct Dpth DpthThk IcePct Cond Salin FI Type Intens Accum Rate
02/08/2018 19:55 Chemically Wet 28.6F - 30F 29F 30 11% - - 53% 27 mhos 3189 - Yes - - -
02/08/2018 19:48 Chemically Wet 28.9F - 30F 29F 35 10% - - 52% 26 mhos 3005 - None None - -
02/08/2018 19:40 Chemically Wet 29.3F - 30F 29F 35 9% 0.10 in - 0% 24 mhos 2738 - Yes - - -
02/08/2018 19:38 Chemically Wet 29.5F - 30F 29F 35 9% 0.10 in - 0% 24 mhos 2673 - None None - -
02/08/2018 19:28 Chemically Wet 29.8F - 30F 30F 35 7% - - 54% 19 mhos 2160 - None None - -
02/08/2018 19:25 Chemically Wet 30.0F - 30F 30F 35 7% - - 54% 18 mhos 2026 - Yes - - -
02/08/2018 19:18 Chemically Wet 30.2F - 30F 30F 30 6% - - 55% 16 mhos 1827 - None None - -
02/08/2018 19:10 Chemically Wet 30.2F - 30F 31F 30 5% - - 58% 14 mhos 1586 - None None - -
02/08/2018 19:08 Chemically Wet 30.2F - 30F 31F 30 5% - - 59% 14 mhos 1542 - None None - -
02/08/2018 18:58 Chemically Wet 31.1F - 30F 31F 30 5% 0.10 in - 0% 13 mhos 1425 - None None - -
02/08/2018 18:55 Chemically Wet 31.1F - 30F 31F 30 5% 0.10 in - 0% 13 mhos 1360 - None None - -
02/08/2018 18:48 Chemically Wet 31.3F - 30F 31F 25 4% 0.20 in - 0% 11 mhos 1206 - None None - -
02/08/2018 18:40 Chemically Wet 31.6F - 30F 31F 20 4% 0.20 in - 0% 10 mhos 1067 - None None - -
02/08/2018 18:37 Chemically Wet 31.8F - 30F 31F 20 3% 0.20 in - 0% 10 mhos 1005 - None None - -
Change End Date:

Copyright © 1998-2015 Vaisala, Inc.
All Rights Reserved
Send comments about the data to:
SCAN Web ® is a registered trademark of Vaisala, Inc.
SCAN Web Version 6.0